Aérodrome :







RETROUVEZ-NOUS SUR...

 
LOGIN :

S'inscrire | Disclaimer

   EN    FR    IT 

 









Légende :    VFR   VFR Marginal   IFR   IFR Intensif   IFR Très Intensif
Visi : 
Plafond : 
>= 8 km
>= 3000ft
5 à 8 km
1000 à 3000 ft
1500m à 5 km
500 à 1000 ft
800 à 1500m
200 à 500 ft
< 800m
< 200 ft
Symboles :   Orages  Brouillard  Fortes neiges  Fortes précipitations  Vent > 20 kt






- Altitude de l'aérodrome : 100 ft
- Code IATA : PSM


KPSM - Portsmouth International at Pease

DERNIER METAR :
  • 020656Z 32012KT 7SM -RA FEW008 SCT015 BKN028 OVC035 04/02 A2962 RMK AO2A SLP034 P0000 T00410016

METARs EXPIRÉS :
  • 020556Z 34010KT 7SM -RA FEW008 BKN015 OVC033 04/01 A2965 RMK AO2A SLP044 P0001 60001 T00420012 10069 20042 57019
  • 020456Z 34012G17KT 7SM -RA FEW008 BKN014 OVC029 04/01 A2966 RMK AO2A SLP047 P0000 T00430012 400801029
  • 020431Z 36013G19KT 7SM -RA FEW007 BKN011 OVC028 05/01 A2967 RMK AO2A SLP050

TAF KPSM
Valide du 02 à 06h jusqu'au 03 à 06h UTC


020538Z 0206/0306 34012G17KT 6SM -RA BR SCT008 OVC015
FM021100 32011G17KT P6SM -RA OVC020
FM021600 34011G18KT 3SM -RA OVC009



MET'MAP, la Météo Aéronautique d'un coup d'oeil ! - Copyright ORBIFLY Décembre 2007 - Disclaimer

ORBIFLY MET'MAP TEAM :

Programmation & Développement : Alexandra Zaïnal
Sur une idée originale de : Baudouin d'Aumeries
Assistance à la programmation : Marc-Olivier Méhu
Soutien technique & logistique : Manuel Goepfert

Contact : metmap@orbifly.com




SOURCES & CREDITS :

   NOAA